Time;durP1;ratioP1;P1;durP2;ratioP2;P2;SDS_P1;SDS_P2;PMS_P1;PMS_P2;Temp;Humidity;BMP_temperature;BMP_pressure;BME280_temperature;BME280_humidity;BME280_pressure;Samples;Min_cycle;Max_cycle;Signal;HPM_P1;HPM_P2
2021/12/08 00:01:20;;;;;;;5.57;1.60;;;;;;;;;;5113134;28;20195;-75
2021/12/08 00:03:48;;;;;;;5.47;1.53;;;;;;;;;;5105994;28;20630;-75
2021/12/08 00:06:15;;;;;;;6.60;1.57;;;;;;;;;;5113600;28;20615;-74
2021/12/08 00:08:48;;;;;;;4.73;1.23;;;;;;;;;;5115007;27;20745;-74
2021/12/08 00:14:03;;;;;;;9.07;1.87;;;;;;;;;;5108013;27;20260;-74
2021/12/08 00:16:30;;;;;;;7.17;1.70;;;;;;;;;;5112416;28;20633;-75
2021/12/08 00:18:59;;;;;;;5.77;1.70;;;;;;;;;;5113190;28;20285;-74
2021/12/08 00:21:28;;;;;;;9.73;1.93;;;;;;;;;;5112577;28;20200;-74
2021/12/08 00:23:55;;;;;;;6.87;1.60;;;;;;;;;;5105242;28;20285;-74
2021/12/08 00:26:22;;;;;;;6.20;1.40;;;;;;;;;;5113293;28;20277;-74
2021/12/08 00:28:49;;;;;;;11.20;1.87;;;;;;;;;;5112841;28;20229;-74
2021/12/08 00:31:18;;;;;;;8.83;1.93;;;;;;;;;;5112470;28;20288;-75
2021/12/08 00:33:46;;;;;;;7.30;1.63;;;;;;;;;;5112464;28;20209;-74
2021/12/08 00:36:15;;;;;;;7.50;1.50;;;;;;;;;;5112106;28;20575;-74
2021/12/08 00:38:42;;;;;;;4.77;1.60;;;;;;;;;;5113152;27;20198;-75
2021/12/08 00:41:11;;;;;;;7.83;1.47;;;;;;;;;;5112807;28;20201;-74
2021/12/08 00:43:38;;;;;;;9.43;1.47;;;;;;;;;;5112127;28;20664;-74
2021/12/08 00:46:05;;;;;;;8.40;1.60;;;;;;;;;;5112465;28;20621;-74
2021/12/08 00:48:33;;;;;;;8.20;1.50;;;;;;;;;;5112970;28;20284;-74
2021/12/08 00:51:01;;;;;;;10.87;1.67;;;;;;;;;;5111893;27;20698;-74
2021/12/08 00:53:28;;;;;;;8.67;1.67;;;;;;;;;;5112544;28;20260;-74
2021/12/08 00:55:55;;;;;;;6.77;1.30;;;;;;;;;;5112088;28;20195;-75
2021/12/08 00:58:22;;;;;;;6.60;1.70;;;;;;;;;;5117661;27;20289;-74
2021/12/08 01:00:51;;;;;;;8.47;1.93;;;;;;;;;;5112084;27;20936;-75
2021/12/08 01:03:18;;;;;;;6.03;1.37;;;;;;;;;;5110472;28;20282;-74
2021/12/08 01:05:48;;;;;;;8.60;1.23;;;;;;;;;;5112261;28;20726;-74
2021/12/08 01:08:16;;;;;;;9.53;1.57;;;;;;;;;;5111909;28;20286;-74
2021/12/08 01:10:44;;;;;;;8.43;1.27;;;;;;;;;;5112016;28;20294;-74
2021/12/08 01:13:12;;;;;;;7.37;1.50;;;;;;;;;;5111332;28;20752;-74
2021/12/08 01:15:42;;;;;;;5.87;1.10;;;;;;;;;;5111623;28;20321;-74
2021/12/08 01:18:10;;;;;;;7.00;1.37;;;;;;;;;;5111470;28;20284;-75
2021/12/08 01:20:38;;;;;;;7.80;1.20;;;;;;;;;;5111945;28;20228;-75
2021/12/08 01:23:07;;;;;;;5.90;1.40;;;;;;;;;;5111736;28;20281;-74
2021/12/08 01:25:34;;;;;;;6.87;1.70;;;;;;;;;;5112147;28;20301;-74
2021/12/08 01:28:01;;;;;;;7.87;1.00;;;;;;;;;;5112087;28;20305;-74
2021/12/08 01:30:28;;;;;;;4.10;0.87;;;;;;;;;;5111313;28;21060;-74
2021/12/08 01:32:56;;;;;;;3.60;1.00;;;;;;;;;;5112339;28;20680;-74
2021/12/08 01:35:24;;;;;;;6.63;1.07;;;;;;;;;;5111552;27;20190;-74
2021/12/08 01:37:51;;;;;;;4.83;1.00;;;;;;;;;;5111607;28;20281;-75
2021/12/08 01:40:20;;;;;;;4.43;1.20;;;;;;;;;;5111499;28;20285;-74
2021/12/08 01:42:51;;;;;;;6.40;1.10;;;;;;;;;;5111624;28;20293;-75
2021/12/08 01:48:05;;;;;;;5.60;0.87;;;;;;;;;;5111461;28;20192;-74
2021/12/08 01:50:32;;;;;;;3.40;0.70;;;;;;;;;;5110776;28;20249;-74
2021/12/08 01:53:00;;;;;;;3.73;0.57;;;;;;;;;;5111667;28;20288;-74
2021/12/08 01:55:28;;;;;;;4.40;0.70;;;;;;;;;;5110923;28;20281;-75
2021/12/08 01:57:56;;;;;;;1.47;0.50;;;;;;;;;;5119644;27;20631;-74
2021/12/08 02:00:25;;;;;;;2.00;0.70;;;;;;;;;;5111651;28;20284;-75
2021/12/08 02:02:53;;;;;;;2.97;0.67;;;;;;;;;;5111607;28;20202;-74
2021/12/08 02:05:20;;;;;;;2.30;0.53;;;;;;;;;;5111436;28;20322;-74
2021/12/08 02:07:47;;;;;;;5.33;0.63;;;;;;;;;;5117218;28;20291;-75
2021/12/08 02:10:15;;;;;;;2.60;0.50;;;;;;;;;;5113131;28;20200;-75
2021/12/08 02:12:43;;;;;;;6.57;0.80;;;;;;;;;;5110856;28;20290;-75
2021/12/08 02:15:13;;;;;;;7.10;1.07;;;;;;;;;;5112405;28;20674;-75
2021/12/08 02:17:41;;;;;;;7.13;0.90;;;;;;;;;;5105823;28;20198;-74
2021/12/08 02:20:10;;;;;;;3.40;0.70;;;;;;;;;;5115673;28;20232;-74
2021/12/08 02:22:39;;;;;;;4.63;0.90;;;;;;;;;;5114908;28;20740;-74
2021/12/08 02:25:07;;;;;;;4.87;0.87;;;;;;;;;;5107593;28;20313;-75
2021/12/08 02:27:34;;;;;;;4.90;1.03;;;;;;;;;;5116751;27;20280;-74
2021/12/08 02:30:11;;;;;;;4.40;0.70;;;;;;;;;;5117526;27;20293;-75
2021/12/08 02:46:49;;;;;;;2.37;0.60;;;;;;;;;;5115172;28;20229;-74
2021/12/08 02:49:18;;;;;;;3.83;0.80;;;;;;;;;;5115403;28;20194;-75
2021/12/08 02:51:45;;;;;;;6.43;0.63;;;;;;;;;;5114579;28;20297;-75
2021/12/08 02:54:14;;;;;;;4.43;0.53;;;;;;;;;;5117523;27;20295;-74
2021/12/08 02:56:41;;;;;;;2.33;0.60;;;;;;;;;;5114277;28;20282;-74
2021/12/08 02:59:09;;;;;;;4.83;0.80;;;;;;;;;;5113876;28;20185;-75
2021/12/08 03:01:38;;;;;;;5.30;0.90;;;;;;;;;;5115093;27;20313;-75
2021/12/08 03:04:06;;;;;;;2.97;0.50;;;;;;;;;;5114426;28;20731;-75
2021/12/08 03:06:34;;;;;;;3.73;0.83;;;;;;;;;;5114797;28;20300;-75
2021/12/08 03:09:02;;;;;;;2.53;0.80;;;;;;;;;;5118073;27;20563;-75
2021/12/08 03:11:31;;;;;;;5.17;0.80;;;;;;;;;;5113702;28;20244;-74
2021/12/08 03:14:00;;;;;;;3.80;0.93;;;;;;;;;;5114777;28;20245;-74
2021/12/08 03:16:27;;;;;;;6.60;1.20;;;;;;;;;;5113480;28;20232;-75
2021/12/08 03:18:55;;;;;;;7.13;1.20;;;;;;;;;;5108973;28;20289;-74
2021/12/08 03:21:28;;;;;;;6.23;1.40;;;;;;;;;;5114022;28;20657;-74
2021/12/08 03:24:07;;;;;;;5.17;0.90;;;;;;;;;;5114446;28;20619;-74
2021/12/08 03:26:44;;;;;;;7.33;1.00;;;;;;;;;;5113009;27;20256;-75
2021/12/08 03:29:21;;;;;;;3.20;0.77;;;;;;;;;;5117212;27;20251;-74
2021/12/08 03:31:51;;;;;;;3.73;0.80;;;;;;;;;;5114165;27;20599;-74
2021/12/08 03:34:21;;;;;;;3.53;1.00;;;;;;;;;;5114246;28;20190;-74
2021/12/08 03:36:48;;;;;;;6.03;1.10;;;;;;;;;;5113483;28;20196;-75
2021/12/08 03:39:15;;;;;;;4.53;0.80;;;;;;;;;;5113416;28;20217;-75
2021/12/08 03:41:45;;;;;;;6.03;1.07;;;;;;;;;;5113613;28;20194;-74
2021/12/08 03:44:13;;;;;;;5.97;1.00;;;;;;;;;;5113780;27;20212;-74
2021/12/08 03:46:42;;;;;;;5.57;0.87;;;;;;;;;;5115242;27;20237;-74
2021/12/08 03:49:11;;;;;;;4.40;0.70;;;;;;;;;;5118587;27;20224;-74
2021/12/08 03:51:39;;;;;;;6.27;1.27;;;;;;;;;;5113461;28;20288;-75
2021/12/08 03:54:06;;;;;;;6.93;1.67;;;;;;;;;;5113100;28;20641;-75
2021/12/08 03:56:34;;;;;;;5.17;0.80;;;;;;;;;;5113052;28;20287;-74
2021/12/08 03:59:02;;;;;;;6.53;1.17;;;;;;;;;;5113653;28;20204;-75
2021/12/08 04:01:30;;;;;;;6.53;1.37;;;;;;;;;;5113214;28;20387;-75
2021/12/08 04:04:02;;;;;;;4.47;1.00;;;;;;;;;;5113479;28;20233;-74
2021/12/08 04:06:32;;;;;;;8.50;1.20;;;;;;;;;;5113192;28;20346;-74
2021/12/08 04:09:04;;;;;;;4.17;1.10;;;;;;;;;;5113009;28;20199;-74
2021/12/08 04:11:32;;;;;;;4.40;1.07;;;;;;;;;;5114364;27;20204;-74
2021/12/08 04:14:00;;;;;;;4.30;1.00;;;;;;;;;;5113740;27;20256;-74
2021/12/08 04:16:32;;;;;;;6.57;1.40;;;;;;;;;;5118641;27;20647;-74
2021/12/08 04:19:00;;;;;;;6.73;1.20;;;;;;;;;;5113556;28;20196;-74
2021/12/08 04:21:28;;;;;;;7.57;1.07;;;;;;;;;;5112854;28;20307;-75
2021/12/08 04:23:56;;;;;;;4.63;1.03;;;;;;;;;;5120072;27;20293;-75
2021/12/08 04:26:25;;;;;;;6.23;1.00;;;;;;;;;;5113253;27;20713;-74
2021/12/08 04:28:52;;;;;;;7.27;1.30;;;;;;;;;;5112524;28;20257;-74
2021/12/08 04:31:22;;;;;;;8.67;1.33;;;;;;;;;;5112645;28;20229;-74
2021/12/08 04:33:54;;;;;;;7.27;1.37;;;;;;;;;;5112369;28;20280;-74
2021/12/08 04:36:22;;;;;;;4.13;1.43;;;;;;;;;;5105401;28;20201;-74
2021/12/08 04:38:54;;;;;;;6.47;1.40;;;;;;;;;;5111510;28;20368;-74
2021/12/08 04:41:27;;;;;;;4.93;1.27;;;;;;;;;;5110781;28;20251;-75
2021/12/08 04:44:01;;;;;;;8.57;1.30;;;;;;;;;;5112720;28;20656;-75
2021/12/08 04:46:46;;;;;;;7.23;1.50;;;;;;;;;;5112492;28;20221;-74
2021/12/08 04:49:31;;;;;;;5.30;1.17;;;;;;;;;;5111450;28;20239;-74
2021/12/08 04:52:05;;;;;;;5.87;1.10;;;;;;;;;;5112357;28;20205;-75
2021/12/08 05:00:24;;;;;;;5.33;1.13;;;;;;;;;;5119244;27;20302;-75
2021/12/08 05:03:17;;;;;;;5.63;0.90;;;;;;;;;;5112398;28;20197;-74
2021/12/08 05:06:04;;;;;;;4.77;0.80;;;;;;;;;;5105596;28;20267;-74
2021/12/08 05:08:41;;;;;;;4.50;0.90;;;;;;;;;;5111196;28;20207;-74
2021/12/08 05:11:09;;;;;;;4.37;0.70;;;;;;;;;;5112448;28;20201;-74
2021/12/08 05:13:36;;;;;;;5.50;0.90;;;;;;;;;;5111367;27;20237;-75
2021/12/08 05:16:04;;;;;;;4.37;0.97;;;;;;;;;;5112349;28;20269;-74
2021/12/08 05:18:33;;;;;;;7.33;1.33;;;;;;;;;;5114418;27;20283;-74
2021/12/08 05:21:07;;;;;;;7.87;1.40;;;;;;;;;;5111988;28;20235;-74
2021/12/08 05:23:37;;;;;;;8.93;1.63;;;;;;;;;;5111635;28;20367;-74
2021/12/08 05:26:06;;;;;;;6.33;1.77;;;;;;;;;;5112202;28;20305;-74
2021/12/08 05:28:33;;;;;;;6.27;1.40;;;;;;;;;;5111545;28;20293;-75
2021/12/08 05:31:03;;;;;;;6.00;1.40;;;;;;;;;;5112174;28;20346;-74
2021/12/08 05:33:30;;;;;;;6.27;1.70;;;;;;;;;;5111246;28;20288;-74
2021/12/08 05:35:58;;;;;;;6.77;1.70;;;;;;;;;;5119742;27;20201;-75
2021/12/08 05:38:27;;;;;;;4.27;0.90;;;;;;;;;;5111468;28;20285;-76
2021/12/08 05:40:56;;;;;;;4.90;1.03;;;;;;;;;;5103690;28;20628;-75
2021/12/08 05:43:24;;;;;;;8.10;1.10;;;;;;;;;;5111753;28;20232;-75
2021/12/08 05:45:52;;;;;;;2.80;0.80;;;;;;;;;;5111157;28;20696;-75
2021/12/08 05:48:19;;;;;;;3.63;0.80;;;;;;;;;;5111482;28;20283;-75
2021/12/08 05:50:49;;;;;;;7.07;1.33;;;;;;;;;;5110356;28;20274;-74
2021/12/08 05:53:17;;;;;;;7.40;0.97;;;;;;;;;;5111651;28;20243;-74
2021/12/08 05:55:46;;;;;;;4.60;0.90;;;;;;;;;;5111588;28;20200;-74
2021/12/08 05:58:13;;;;;;;4.70;1.00;;;;;;;;;;5111656;28;20232;-74
2021/12/08 06:00:43;;;;;;;6.43;1.20;;;;;;;;;;5110710;28;20312;-75
2021/12/08 06:03:11;;;;;;;9.53;1.20;;;;;;;;;;5111460;28;20260;-74
2021/12/08 06:05:41;;;;;;;4.67;0.90;;;;;;;;;;5110884;28;20208;-77
2021/12/08 06:08:08;;;;;;;7.87;1.23;;;;;;;;;;5104508;28;20253;-76
2021/12/08 06:10:37;;;;;;;7.20;1.10;;;;;;;;;;5112716;28;20281;-76
2021/12/08 06:13:07;;;;;;;5.50;0.97;;;;;;;;;;5111810;28;20287;-76
2021/12/08 06:15:34;;;;;;;6.50;1.10;;;;;;;;;;5116197;28;20224;-75
2021/12/08 06:18:01;;;;;;;5.73;1.10;;;;;;;;;;5110559;28;20236;-76
2021/12/08 06:20:29;;;;;;;8.63;1.20;;;;;;;;;;5112340;28;20744;-76
2021/12/08 06:22:57;;;;;;;7.27;1.37;;;;;;;;;;5111039;28;20295;-76
2021/12/08 06:25:24;;;;;;;5.30;0.97;;;;;;;;;;5111598;28;20215;-77
2021/12/08 06:27:52;;;;;;;3.70;1.20;;;;;;;;;;5110973;28;20626;-79
2021/12/08 06:30:22;;;;;;;3.87;1.07;;;;;;;;;;5111247;28;20281;-77
2021/12/08 06:32:50;;;;;;;5.00;1.23;;;;;;;;;;5117502;28;20284;-77
2021/12/08 06:35:20;;;;;;;4.83;1.30;;;;;;;;;;5110281;28;20346;-76
2021/12/08 06:37:48;;;;;;;5.17;1.20;;;;;;;;;;5104708;28;20225;-76
2021/12/08 06:40:17;;;;;;;9.93;1.80;;;;;;;;;;5110619;28;20741;-76
2021/12/08 06:42:46;;;;;;;5.17;1.50;;;;;;;;;;5123920;28;20285;-76
2021/12/08 06:45:18;;;;;;;5.60;1.60;;;;;;;;;;5116634;27;20280;-77
2021/12/08 06:47:47;;;;;;;5.17;1.07;;;;;;;;;;5116693;28;20221;-76
2021/12/08 06:50:16;;;;;;;9.23;1.17;;;;;;;;;;5112222;28;20288;-76
2021/12/08 06:52:43;;;;;;;7.07;1.20;;;;;;;;;;5107080;28;20229;-76
2021/12/08 06:55:13;;;;;;;8.10;1.37;;;;;;;;;;5110686;28;20775;-75
2021/12/08 06:57:42;;;;;;;4.00;1.23;;;;;;;;;;5110996;28;20281;-76
2021/12/08 07:00:22;;;;;;;5.17;1.10;;;;;;;;;;5111111;28;20268;-76
2021/12/08 07:03:08;;;;;;;5.27;1.27;;;;;;;;;;5116600;27;20281;-76
2021/12/08 07:08:17;;;;;;;4.43;1.10;;;;;;;;;;5114101;27;20212;-76
2021/12/08 07:10:46;;;;;;;4.77;1.10;;;;;;;;;;5117262;27;20202;-74
2021/12/08 07:13:16;;;;;;;5.80;1.50;;;;;;;;;;5115012;28;20621;-76
2021/12/08 07:15:46;;;;;;;6.43;1.17;;;;;;;;;;5114514;28;20233;-76
2021/12/08 07:18:16;;;;;;;3.50;1.60;;;;;;;;;;5116296;27;20196;-75
2021/12/08 07:20:46;;;;;;;3.37;1.10;;;;;;;;;;5114094;28;20759;-76
2021/12/08 07:23:15;;;;;;;6.73;1.30;;;;;;;;;;5114395;28;20204;-76
2021/12/08 07:25:43;;;;;;;2.57;1.07;;;;;;;;;;5114177;28;20225;-76
2021/12/08 07:28:11;;;;;;;4.27;1.30;;;;;;;;;;5114105;27;20304;-76
2021/12/08 07:30:50;;;;;;;5.03;1.60;;;;;;;;;;5114280;28;20288;-76
2021/12/08 07:33:19;;;;;;;4.97;1.50;;;;;;;;;;5114031;28;20323;-76
2021/12/08 07:35:48;;;;;;;4.73;1.30;;;;;;;;;;5115853;27;20225;-76
2021/12/08 07:38:19;;;;;;;5.27;1.50;;;;;;;;;;5114216;28;20616;-76
2021/12/08 07:40:50;;;;;;;4.17;1.20;;;;;;;;;;5113894;28;20287;-76
2021/12/08 07:43:20;;;;;;;3.90;1.50;;;;;;;;;;5126046;27;20197;-76
2021/12/08 07:45:49;;;;;;;4.03;1.63;;;;;;;;;;5113667;28;20197;-76
2021/12/08 07:48:18;;;;;;;4.40;1.40;;;;;;;;;;5113579;28;20312;-76
2021/12/08 07:50:48;;;;;;;5.20;1.50;;;;;;;;;;5113268;28;20633;-76
2021/12/08 07:53:17;;;;;;;5.63;1.60;;;;;;;;;;5113560;28;20615;-76
2021/12/08 07:55:47;;;;;;;4.10;1.87;;;;;;;;;;5118498;27;20193;-76
2021/12/08 07:58:16;;;;;;;3.30;1.63;;;;;;;;;;5120815;27;20284;-77
2021/12/08 08:00:45;;;;;;;3.30;2.00;;;;;;;;;;5112885;28;20288;-76
2021/12/08 08:03:13;;;;;;;4.43;1.90;;;;;;;;;;5117027;27;20634;-77
2021/12/08 08:05:41;;;;;;;6.90;1.53;;;;;;;;;;5118417;27;20287;-77
2021/12/08 08:08:13;;;;;;;3.00;2.10;;;;;;;;;;5121378;27;20310;-76
2021/12/08 08:10:43;;;;;;;6.23;2.80;;;;;;;;;;5115151;27;20203;-75
2021/12/08 08:13:11;;;;;;;5.73;2.70;;;;;;;;;;5112370;28;20194;-76
2021/12/08 08:15:43;;;;;;;8.27;3.07;;;;;;;;;;5107714;28;20359;-77
2021/12/08 08:18:12;;;;;;;6.27;3.03;;;;;;;;;;5112382;27;20232;-76
2021/12/08 08:20:44;;;;;;;7.70;3.10;;;;;;;;;;5111836;27;20201;-76
2021/12/08 08:23:13;;;;;;;10.03;2.87;;;;;;;;;;5111346;27;20203;-76
2021/12/08 08:25:41;;;;;;;8.37;2.70;;;;;;;;;;5112740;28;20229;-75
2021/12/08 08:28:09;;;;;;;8.07;3.40;;;;;;;;;;5111608;28;20308;-76
2021/12/08 08:30:38;;;;;;;10.47;3.87;;;;;;;;;;5112016;28;20229;-76
2021/12/08 08:33:06;;;;;;;7.07;2.60;;;;;;;;;;5112362;28;20235;-76
2021/12/08 08:35:35;;;;;;;6.80;2.87;;;;;;;;;;5112892;28;20280;-74
2021/12/08 08:38:03;;;;;;;9.87;3.90;;;;;;;;;;5111884;28;20620;-75
2021/12/08 08:40:33;;;;;;;5.47;2.37;;;;;;;;;;5112491;28;20657;-76
2021/12/08 08:43:01;;;;;;;4.67;2.10;;;;;;;;;;5111998;28;20284;-76
2021/12/08 08:45:30;;;;;;;3.73;1.50;;;;;;;;;;5112330;28;20292;-75
2021/12/08 08:48:00;;;;;;;4.33;1.43;;;;;;;;;;5112195;28;20309;-75
2021/12/08 08:50:30;;;;;;;3.90;1.80;;;;;;;;;;5112077;28;20281;-76
2021/12/08 08:52:57;;;;;;;4.90;2.40;;;;;;;;;;5112470;28;20279;-76
2021/12/08 08:55:27;;;;;;;6.90;2.07;;;;;;;;;;5112092;28;20199;-75
2021/12/08 08:57:56;;;;;;;7.47;2.17;;;;;;;;;;5112331;28;20221;-76
2021/12/08 09:00:30;;;;;;;4.87;1.67;;;;;;;;;;5117506;27;20280;-76
2021/12/08 09:02:58;;;;;;;4.37;1.20;;;;;;;;;;5110424;28;20209;-76
2021/12/08 09:05:27;;;;;;;4.43;1.20;;;;;;;;;;5111620;28;20288;-76
2021/12/08 09:07:56;;;;;;;3.60;1.20;;;;;;;;;;5111968;28;20313;-76
2021/12/08 09:10:25;;;;;;;1.37;1.00;;;;;;;;;;5111884;28;20277;-76
2021/12/08 09:12:54;;;;;;;3.53;1.37;;;;;;;;;;5112121;28;20284;-76
2021/12/08 09:15:25;;;;;;;5.67;1.50;;;;;;;;;;5111526;28;20304;-76
2021/12/08 09:17:54;;;;;;;2.37;1.20;;;;;;;;;;5112024;28;20229;-76
2021/12/08 09:20:25;;;;;;;3.47;1.47;;;;;;;;;;5111844;28;20194;-76
2021/12/08 09:22:57;;;;;;;3.37;1.07;;;;;;;;;;5111964;28;20199;-75
2021/12/08 09:25:29;;;;;;;3.90;1.93;;;;;;;;;;5111460;28;20611;-76
2021/12/08 09:27:58;;;;;;;2.57;1.57;;;;;;;;;;5111081;28;20300;-76
2021/12/08 09:30:32;;;;;;;4.63;1.87;;;;;;;;;;5111529;28;20338;-75
2021/12/08 09:33:02;;;;;;;2.90;1.47;;;;;;;;;;5111919;28;20191;-76
2021/12/08 09:35:31;;;;;;;3.17;1.60;;;;;;;;;;5110886;28;20362;-76
2021/12/08 09:38:04;;;;;;;4.93;1.70;;;;;;;;;;5105912;28;20275;-76
2021/12/08 09:40:34;;;;;;;4.77;2.00;;;;;;;;;;5111214;28;20201;-76
2021/12/08 09:43:02;;;;;;;5.47;3.30;;;;;;;;;;5105433;28;20744;-76
2021/12/08 09:45:32;;;;;;;4.30;3.30;;;;;;;;;;5111183;28;20226;-76
2021/12/08 09:48:02;;;;;;;5.10;3.57;;;;;;;;;;5111042;28;20312;-76
2021/12/08 09:50:29;;;;;;;5.53;3.97;;;;;;;;;;5111486;28;20198;-76
2021/12/08 09:52:56;;;;;;;6.27;4.33;;;;;;;;;;5111147;28;20328;-76
2021/12/08 09:55:23;;;;;;;6.60;4.53;;;;;;;;;;5111690;28;20280;-75
2021/12/08 09:57:51;;;;;;;6.10;4.90;;;;;;;;;;5109630;28;20603;-76
2021/12/08 10:00:22;;;;;;;5.37;3.80;;;;;;;;;;5111636;28;20209;-76
2021/12/08 10:02:56;;;;;;;4.70;3.20;;;;;;;;;;5109545;28;20201;-76
2021/12/08 10:05:25;;;;;;;4.30;2.50;;;;;;;;;;5111637;28;20265;-76
2021/12/08 10:07:52;;;;;;;6.77;3.10;;;;;;;;;;5110213;28;20217;-76
2021/12/08 10:10:20;;;;;;;4.60;2.30;;;;;;;;;;5111287;28;20219;-76
2021/12/08 10:12:47;;;;;;;6.00;2.60;;;;;;;;;;5110075;28;20616;-75
2021/12/08 10:15:16;;;;;;;5.23;2.70;;;;;;;;;;5110005;28;20219;-76
2021/12/08 10:17:43;;;;;;;3.93;2.57;;;;;;;;;;5110491;28;20273;-76
2021/12/08 10:20:14;;;;;;;3.53;2.20;;;;;;;;;;5109700;28;20276;-76
2021/12/08 10:22:42;;;;;;;4.13;2.10;;;;;;;;;;5110127;28;20285;-77
2021/12/08 10:25:10;;;;;;;5.10;1.70;;;;;;;;;;5109917;28;20232;-76
2021/12/08 10:27:56;;;;;;;3.20;1.40;;;;;;;;;;5109982;28;20248;-75
2021/12/08 10:30:24;;;;;;;2.23;1.10;;;;;;;;;;5109541;28;20202;-74
2021/12/08 10:32:53;;;;;;;4.13;1.30;;;;;;;;;;5110386;28;20235;-76
2021/12/08 10:35:42;;;;;;;3.63;1.27;;;;;;;;;;5110091;28;20205;-76
2021/12/08 10:38:11;;;;;;;4.00;1.30;;;;;;;;;;5116075;27;20201;-76
2021/12/08 10:40:38;;;;;;;3.30;1.70;;;;;;;;;;5113547;28;20229;-76
2021/12/08 10:43:15;;;;;;;3.57;1.50;;;;;;;;;;5113637;28;20285;-76
2021/12/08 10:45:42;;;;;;;3.73;1.23;;;;;;;;;;5114001;28;20240;-76
2021/12/08 10:48:10;;;;;;;3.00;1.40;;;;;;;;;;5113835;28;20304;-76
2021/12/08 10:56:12;;;;;;;3.67;1.10;;;;;;;;;;5113615;28;20200;-76
2021/12/08 10:58:40;;;;;;;3.93;1.30;;;;;;;;;;5107376;28;20272;-76
2021/12/08 11:01:11;;;;;;;2.00;1.30;;;;;;;;;;5113941;28;20285;-76
2021/12/08 11:03:39;;;;;;;4.07;1.30;;;;;;;;;;5113304;28;20225;-76
2021/12/08 11:06:09;;;;;;;2.97;1.40;;;;;;;;;;5105634;28;20567;-76
2021/12/08 11:08:38;;;;;;;1.83;0.93;;;;;;;;;;5114355;28;20574;-76
2021/12/08 11:11:07;;;;;;;3.53;1.00;;;;;;;;;;5119909;27;20221;-75
2021/12/08 11:13:36;;;;;;;3.73;1.17;;;;;;;;;;5114632;28;20225;-76
2021/12/08 11:16:12;;;;;;;3.37;1.20;;;;;;;;;;5113949;28;20313;-76
2021/12/08 11:18:39;;;;;;;3.13;0.90;;;;;;;;;;5113792;28;20209;-75
2021/12/08 11:21:13;;;;;;;3.70;1.00;;;;;;;;;;5112896;28;20615;-76
2021/12/08 11:23:43;;;;;;;2.87;0.90;;;;;;;;;;5113432;27;20297;-76
2021/12/08 11:26:29;;;;;;;2.77;0.90;;;;;;;;;;5113334;27;20209;-76
2021/12/08 11:29:01;;;;;;;4.43;1.30;;;;;;;;;;5113765;28;20217;-75
2021/12/08 11:31:30;;;;;;;4.10;1.30;;;;;;;;;;5113643;28;20285;-76
2021/12/08 11:34:00;;;;;;;4.00;1.10;;;;;;;;;;5114234;28;20276;-76
2021/12/08 11:36:30;;;;;;;4.50;1.30;;;;;;;;;;5113308;28;20190;-77
2021/12/08 11:38:58;;;;;;;3.50;1.73;;;;;;;;;;5108682;28;20205;-76
2021/12/08 11:41:34;;;;;;;4.47;1.83;;;;;;;;;;5112694;27;20216;-76
2021/12/08 11:44:02;;;;;;;2.87;1.27;;;;;;;;;;5113497;28;20197;-76
2021/12/08 11:46:30;;;;;;;4.50;1.50;;;;;;;;;;5111847;28;20281;-76
2021/12/08 11:49:04;;;;;;;4.60;1.40;;;;;;;;;;5113922;28;20313;-76
2021/12/08 11:51:32;;;;;;;3.97;1.67;;;;;;;;;;5111191;28;20205;-75
2021/12/08 11:54:01;;;;;;;4.17;1.60;;;;;;;;;;5109813;28;20209;-75
2021/12/08 11:56:36;;;;;;;3.47;1.50;;;;;;;;;;5112115;28;20289;-76
2021/12/08 11:59:05;;;;;;;2.77;1.20;;;;;;;;;;5113604;28;20258;-76
2021/12/08 12:01:33;;;;;;;4.73;1.40;;;;;;;;;;5118778;27;20197;-76
2021/12/08 12:04:00;;;;;;;4.27;1.50;;;;;;;;;;5110598;28;20670;-75
2021/12/08 12:06:31;;;;;;;3.43;1.40;;;;;;;;;;5113318;28;20293;-75
2021/12/08 12:08:58;;;;;;;3.27;1.30;;;;;;;;;;5112806;28;20307;-76
2021/12/08 12:11:28;;;;;;;2.80;1.27;;;;;;;;;;5113495;28;20300;-76
2021/12/08 12:13:56;;;;;;;4.07;1.10;;;;;;;;;;5111756;28;20330;-75
2021/12/08 12:16:24;;;;;;;2.83;0.90;;;;;;;;;;5111873;28;20316;-75
2021/12/08 12:18:53;;;;;;;3.37;1.13;;;;;;;;;;5112943;28;20276;-76
2021/12/08 12:21:26;;;;;;;4.93;1.50;;;;;;;;;;5112956;28;20197;-75
2021/12/08 12:24:03;;;;;;;3.27;1.00;;;;;;;;;;5112239;27;20284;-76
2021/12/08 12:26:41;;;;;;;2.60;1.00;;;;;;;;;;5112854;28;20208;-76
2021/12/08 12:29:13;;;;;;;2.53;1.10;;;;;;;;;;5111877;27;20304;-75
2021/12/08 12:31:45;;;;;;;4.03;1.20;;;;;;;;;;5113265;28;20292;-75
2021/12/08 12:34:22;;;;;;;4.10;1.30;;;;;;;;;;5110643;28;20292;-76
2021/12/08 12:36:49;;;;;;;3.77;1.20;;;;;;;;;;5112418;28;20277;-77
2021/12/08 12:39:17;;;;;;;3.67;1.07;;;;;;;;;;5112422;28;20217;-76
2021/12/08 12:41:57;;;;;;;4.27;1.40;;;;;;;;;;5115127;27;20236;-75
2021/12/08 12:44:25;;;;;;;3.90;1.10;;;;;;;;;;5111294;28;20285;-75
2021/12/08 12:47:12;;;;;;;3.37;1.00;;;;;;;;;;5111968;28;20236;-75
2021/12/08 12:49:40;;;;;;;3.10;0.90;;;;;;;;;;5111570;28;20218;-75
2021/12/08 12:52:08;;;;;;;3.73;1.10;;;;;;;;;;5113271;27;20288;-75
2021/12/08 12:54:36;;;;;;;4.17;0.93;;;;;;;;;;5115811;27;20201;-74
2021/12/08 12:57:06;;;;;;;2.67;0.83;;;;;;;;;;5111564;28;20281;-75
2021/12/08 12:59:40;;;;;;;4.13;1.10;;;;;;;;;;5111575;28;20216;-74
2021/12/08 13:02:08;;;;;;;2.83;1.07;;;;;;;;;;5112311;28;20246;-75
2021/12/08 13:04:36;;;;;;;4.13;1.07;;;;;;;;;;5111704;28;20202;-75
2021/12/08 13:07:04;;;;;;;5.77;1.23;;;;;;;;;;5118017;27;20289;-75
2021/12/08 13:09:43;;;;;;;2.43;1.10;;;;;;;;;;5112040;28;20573;-74
2021/12/08 13:12:13;;;;;;;3.67;1.10;;;;;;;;;;5110974;27;20198;-74
2021/12/08 13:14:40;;;;;;;1.90;1.17;;;;;;;;;;5111779;28;20780;-75
2021/12/08 13:17:24;;;;;;;3.10;0.90;;;;;;;;;;5111734;28;20316;-75
2021/12/08 13:19:53;;;;;;;3.23;0.90;;;;;;;;;;5111310;28;20276;-75
2021/12/08 13:22:39;;;;;;;4.93;1.17;;;;;;;;;;5111735;28;20201;-75
2021/12/08 13:25:23;;;;;;;2.33;1.10;;;;;;;;;;5111887;28;20285;-75
2021/12/08 13:27:53;;;;;;;2.97;1.00;;;;;;;;;;5114517;27;20236;-74
2021/12/08 13:30:21;;;;;;;2.67;1.17;;;;;;;;;;5113842;27;20221;-75
2021/12/08 13:32:56;;;;;;;3.70;0.87;;;;;;;;;;5112271;28;20280;-76
2021/12/08 13:35:32;;;;;;;3.27;1.10;;;;;;;;;;5111339;28;20542;-75
2021/12/08 13:38:00;;;;;;;3.77;1.23;;;;;;;;;;5111969;28;20202;-75
2021/12/08 13:40:43;;;;;;;3.00;0.60;;;;;;;;;;5111436;28;20284;-75
2021/12/08 13:43:12;;;;;;;3.10;0.90;;;;;;;;;;5112201;28;20186;-76
2021/12/08 13:45:42;;;;;;;4.37;1.30;;;;;;;;;;5111653;28;20335;-75
2021/12/08 13:48:10;;;;;;;2.50;0.90;;;;;;;;;;5112096;27;20206;-75
2021/12/08 13:50:38;;;;;;;6.73;0.80;;;;;;;;;;5110932;28;20292;-74
2021/12/08 13:53:08;;;;;;;2.83;0.80;;;;;;;;;;5112162;28;20201;-75
2021/12/08 13:55:38;;;;;;;2.00;0.90;;;;;;;;;;5111132;28;20660;-75
2021/12/08 13:58:14;;;;;;;4.77;1.27;;;;;;;;;;5111672;28;20208;-75
2021/12/08 14:00:43;;;;;;;3.73;1.07;;;;;;;;;;5111615;28;20285;-75
2021/12/08 14:03:15;;;;;;;2.47;0.73;;;;;;;;;;5111114;28;20257;-75
2021/12/08 14:05:45;;;;;;;3.37;0.80;;;;;;;;;;5118642;28;20204;-74
2021/12/08 14:08:16;;;;;;;4.60;1.77;;;;;;;;;;5111779;28;20198;-75
2021/12/08 14:10:44;;;;;;;3.80;1.53;;;;;;;;;;5104381;28;20198;-75
2021/12/08 14:13:12;;;;;;;4.47;1.70;;;;;;;;;;5115498;28;20189;-75
2021/12/08 14:15:43;;;;;;;2.83;1.30;;;;;;;;;;5131384;27;20233;-76
2021/12/08 14:18:15;;;;;;;2.83;1.53;;;;;;;;;;5107662;28;20728;-75
2021/12/08 14:20:43;;;;;;;4.57;1.40;;;;;;;;;;5114578;28;20649;-75
2021/12/08 14:23:12;;;;;;;5.00;1.30;;;;;;;;;;5113959;28;20248;-76
2021/12/08 14:25:43;;;;;;;3.50;1.10;;;;;;;;;;5114739;28;20280;-75
2021/12/08 14:28:29;;;;;;;2.47;1.07;;;;;;;;;;5113864;28;20206;-75
2021/12/08 14:30:58;;;;;;;3.37;1.53;;;;;;;;;;5111609;28;20228;-75
2021/12/08 14:33:26;;;;;;;3.90;1.17;;;;;;;;;;5113537;28;20300;-75
2021/12/08 14:35:57;;;;;;;2.37;0.90;;;;;;;;;;5114425;27;20226;-75
2021/12/08 14:38:24;;;;;;;3.63;0.90;;;;;;;;;;5113224;28;20281;-75
2021/12/08 14:40:52;;;;;;;2.93;1.00;;;;;;;;;;5119411;27;20293;-75
2021/12/08 14:43:32;;;;;;;3.43;0.80;;;;;;;;;;5114526;28;20212;-75
2021/12/08 14:46:09;;;;;;;2.97;1.20;;;;;;;;;;5114354;28;20258;-75
2021/12/08 14:48:36;;;;;;;6.33;1.83;;;;;;;;;;5113356;28;20229;-75
2021/12/08 14:51:04;;;;;;;3.93;1.40;;;;;;;;;;5107760;27;20251;-76
2021/12/08 14:53:34;;;;;;;2.80;1.20;;;;;;;;;;5113387;28;20193;-75
2021/12/08 14:56:08;;;;;;;4.40;2.03;;;;;;;;;;5114416;27;20277;-76
2021/12/08 14:58:35;;;;;;;5.03;2.10;;;;;;;;;;5114826;28;20300;-75
2021/12/08 15:01:04;;;;;;;5.67;1.77;;;;;;;;;;5118540;27;20835;-75
2021/12/08 15:03:39;;;;;;;6.00;1.80;;;;;;;;;;5135608;27;20201;-75
2021/12/08 15:06:06;;;;;;;7.37;2.43;;;;;;;;;;5115619;27;20227;-75
2021/12/08 15:08:39;;;;;;;6.00;2.63;;;;;;;;;;5114821;28;20204;-75
2021/12/08 15:11:06;;;;;;;4.60;1.73;;;;;;;;;;5113646;28;20216;-75
2021/12/08 15:13:34;;;;;;;4.57;1.30;;;;;;;;;;5113429;28;20658;-74
2021/12/08 15:16:03;;;;;;;7.47;1.90;;;;;;;;;;5114158;28;20271;-75
2021/12/08 15:18:31;;;;;;;3.17;0.90;;;;;;;;;;5114174;28;20201;-75
2021/12/08 15:21:01;;;;;;;1.27;0.80;;;;;;;;;;5113863;28;20641;-75
2021/12/08 15:23:39;;;;;;;30.40;5.40;;;;;;;;;;5114226;28;20242;-75
2021/12/08 15:26:07;;;;;;;23.10;4.10;;;;;;;;;;5116662;27;20259;-76
2021/12/08 15:28:35;;;;;;;2.27;0.47;;;;;;;;;;5121432;27;20225;-75
2021/12/08 15:31:03;;;;;;;0.63;0.30;;;;;;;;;;5113701;27;20281;-75
2021/12/08 15:33:32;;;;;;;1.07;0.47;;;;;;;;;;5114417;27;20288;-75